sensor_id;sensor_type;location;lat;lon;timestamp;temperature;humidity
48752;DHT22;34544;48.836;9.174;2022-11-20T00:03:38;5.70;99.90
48752;DHT22;34544;48.836;9.174;2022-11-20T00:06:06;5.70;99.90
48752;DHT22;34544;48.836;9.174;2022-11-20T00:08:32;5.70;99.90
48752;DHT22;34544;48.836;9.174;2022-11-20T00:11:06;5.70;99.90
48752;DHT22;34544;48.836;9.174;2022-11-20T00:13:33;5.70;99.90
48752;DHT22;34544;48.836;9.174;2022-11-20T00:16:00;5.70;99.90
48752;DHT22;34544;48.836;9.174;2022-11-20T00:18:27;5.70;99.90
48752;DHT22;34544;48.836;9.174;2022-11-20T00:20:52;5.70;99.90
48752;DHT22;34544;48.836;9.174;2022-11-20T00:23:18;5.70;99.90
48752;DHT22;34544;48.836;9.174;2022-11-20T00:25:44;5.70;99.90
48752;DHT22;34544;48.836;9.174;2022-11-20T00:28:09;5.70;99.90
48752;DHT22;34544;48.836;9.174;2022-11-20T00:30:35;5.70;99.90
48752;DHT22;34544;48.836;9.174;2022-11-20T00:33:01;5.80;99.90
48752;DHT22;34544;48.836;9.174;2022-11-20T00:35:26;5.80;99.90
48752;DHT22;34544;48.836;9.174;2022-11-20T00:37:52;5.80;99.90
48752;DHT22;34544;48.836;9.174;2022-11-20T00:40:17;5.90;99.90
48752;DHT22;34544;48.836;9.174;2022-11-20T00:42:43;5.80;99.90
48752;DHT22;34544;48.836;9.174;2022-11-20T00:45:09;5.80;99.90
48752;DHT22;34544;48.836;9.174;2022-11-20T00:47:34;5.80;99.90
48752;DHT22;34544;48.836;9.174;2022-11-20T00:50:00;5.80;99.90
48752;DHT22;34544;48.836;9.174;2022-11-20T00:52:26;5.80;99.90
48752;DHT22;34544;48.836;9.174;2022-11-20T00:54:51;5.80;99.90
48752;DHT22;34544;48.836;9.174;2022-11-20T00:57:17;5.80;99.90
48752;DHT22;34544;48.836;9.174;2022-11-20T00:59:42;5.80;99.90
48752;DHT22;34544;48.836;9.174;2022-11-20T01:02:08;5.80;99.90
48752;DHT22;34544;48.836;9.174;2022-11-20T01:04:34;5.70;99.90
48752;DHT22;34544;48.836;9.174;2022-11-20T01:07:00;5.80;99.90
48752;DHT22;34544;48.836;9.174;2022-11-20T01:09:25;5.70;99.90
48752;DHT22;34544;48.836;9.174;2022-11-20T01:11:51;5.70;99.90
48752;DHT22;34544;48.836;9.174;2022-11-20T01:14:19;5.60;99.90
48752;DHT22;34544;48.836;9.174;2022-11-20T01:16:48;5.60;99.90
48752;DHT22;34544;48.836;9.174;2022-11-20T01:19:17;5.60;99.90
48752;DHT22;34544;48.836;9.174;2022-11-20T01:21:44;5.60;99.90
48752;DHT22;34544;48.836;9.174;2022-11-20T01:24:13;5.50;99.90
48752;DHT22;34544;48.836;9.174;2022-11-20T01:26:40;5.50;99.90
48752;DHT22;34544;48.836;9.174;2022-11-20T01:29:08;5.40;99.90
48752;DHT22;34544;48.836;9.174;2022-11-20T01:31:36;5.40;99.90
48752;DHT22;34544;48.836;9.174;2022-11-20T01:34:04;5.40;99.90
48752;DHT22;34544;48.836;9.174;2022-11-20T01:36:32;5.40;99.90
48752;DHT22;34544;48.836;9.174;2022-11-20T01:39:01;5.40;99.90
48752;DHT22;34544;48.836;9.174;2022-11-20T01:41:28;5.40;99.90
48752;DHT22;34544;48.836;9.174;2022-11-20T01:44:16;5.40;99.90
48752;DHT22;34544;48.836;9.174;2022-11-20T01:47:00;5.40;99.90
48752;DHT22;34544;48.836;9.174;2022-11-20T01:49:40;5.30;99.90
48752;DHT22;34544;48.836;9.174;2022-11-20T01:52:16;5.40;99.90
48752;DHT22;34544;48.836;9.174;2022-11-20T01:54:50;5.30;99.90
48752;DHT22;34544;48.836;9.174;2022-11-20T01:57:18;5.30;99.90
48752;DHT22;34544;48.836;9.174;2022-11-20T01:59:55;5.30;99.90
48752;DHT22;34544;48.836;9.174;2022-11-20T02:02:22;5.40;99.90
48752;DHT22;34544;48.836;9.174;2022-11-20T02:04:49;5.40;99.90
48752;DHT22;34544;48.836;9.174;2022-11-20T02:07:17;5.40;99.90
48752;DHT22;34544;48.836;9.174;2022-11-20T02:09:43;5.30;99.90
48752;DHT22;34544;48.836;9.174;2022-11-20T02:12:09;5.40;99.90
48752;DHT22;34544;48.836;9.174;2022-11-20T02:14:55;5.40;99.90
48752;DHT22;34544;48.836;9.174;2022-11-20T02:17:20;5.40;99.90
48752;DHT22;34544;48.836;9.174;2022-11-20T02:19:46;5.40;99.90
48752;DHT22;34544;48.836;9.174;2022-11-20T02:22:21;5.40;99.90
48752;DHT22;34544;48.836;9.174;2022-11-20T02:24:51;5.40;99.90
48752;DHT22;34544;48.836;9.174;2022-11-20T02:27:17;5.40;99.90
48752;DHT22;34544;48.836;9.174;2022-11-20T02:29:55;5.50;99.90
48752;DHT22;34544;48.836;9.174;2022-11-20T02:32:26;5.50;99.90
48752;DHT22;34544;48.836;9.174;2022-11-20T02:34:53;5.50;99.90
48752;DHT22;34544;48.836;9.174;2022-11-20T02:37:19;5.50;99.90
48752;DHT22;34544;48.836;9.174;2022-11-20T02:39:50;5.50;99.90
48752;DHT22;34544;48.836;9.174;2022-11-20T02:42:16;5.50;99.90
48752;DHT22;34544;48.836;9.174;2022-11-20T02:44:42;5.50;99.90
48752;DHT22;34544;48.836;9.174;2022-11-20T02:47:08;5.60;99.90
48752;DHT22;34544;48.836;9.174;2022-11-20T02:49:34;5.70;99.90
48752;DHT22;34544;48.836;9.174;2022-11-20T02:52:00;5.70;99.90
48752;DHT22;34544;48.836;9.174;2022-11-20T02:54:25;5.70;99.90
48752;DHT22;34544;48.836;9.174;2022-11-20T02:56:51;5.80;99.90
48752;DHT22;34544;48.836;9.174;2022-11-20T02:59:17;5.90;99.90
48752;DHT22;34544;48.836;9.174;2022-11-20T03:01:43;5.90;99.90
48752;DHT22;34544;48.836;9.174;2022-11-20T03:04:08;6.00;99.90
48752;DHT22;34544;48.836;9.174;2022-11-20T03:06:34;6.00;99.90
48752;DHT22;34544;48.836;9.174;2022-11-20T03:09:00;6.00;99.90
48752;DHT22;34544;48.836;9.174;2022-11-20T03:11:26;6.00;99.90
48752;DHT22;34544;48.836;9.174;2022-11-20T03:13:52;6.00;99.90
48752;DHT22;34544;48.836;9.174;2022-11-20T03:16:19;6.10;99.90
48752;DHT22;34544;48.836;9.174;2022-11-20T03:18:45;6.10;99.90
48752;DHT22;34544;48.836;9.174;2022-11-20T03:21:12;6.00;99.90
48752;DHT22;34544;48.836;9.174;2022-11-20T03:23:39;6.10;99.90
48752;DHT22;34544;48.836;9.174;2022-11-20T03:26:23;6.00;99.90
48752;DHT22;34544;48.836;9.174;2022-11-20T03:31:18;5.90;99.90
48752;DHT22;34544;48.836;9.174;2022-11-20T03:33:43;5.90;99.90
48752;DHT22;34544;48.836;9.174;2022-11-20T03:36:12;5.90;99.90
48752;DHT22;34544;48.836;9.174;2022-11-20T03:38:39;5.90;99.90
48752;DHT22;34544;48.836;9.174;2022-11-20T03:41:08;5.80;99.90
48752;DHT22;34544;48.836;9.174;2022-11-20T03:43:34;5.80;99.90
48752;DHT22;34544;48.836;9.174;2022-11-20T03:46:00;5.80;99.90
48752;DHT22;34544;48.836;9.174;2022-11-20T03:48:26;5.80;99.90
48752;DHT22;34544;48.836;9.174;2022-11-20T03:50:53;5.90;99.90
48752;DHT22;34544;48.836;9.174;2022-11-20T03:53:19;5.90;99.90
48752;DHT22;34544;48.836;9.174;2022-11-20T03:55:50;5.90;99.90
48752;DHT22;34544;48.836;9.174;2022-11-20T03:58:16;5.90;99.90
48752;DHT22;34544;48.836;9.174;2022-11-20T04:00:41;5.80;99.90
48752;DHT22;34544;48.836;9.174;2022-11-20T04:03:07;5.80;99.90
48752;DHT22;34544;48.836;9.174;2022-11-20T04:05:33;5.80;99.90
48752;DHT22;34544;48.836;9.174;2022-11-20T04:07:59;5.80;99.90
48752;DHT22;34544;48.836;9.174;2022-11-20T04:10:25;5.70;99.90
48752;DHT22;34544;48.836;9.174;2022-11-20T04:12:51;5.80;99.90
48752;DHT22;34544;48.836;9.174;2022-11-20T04:15:16;5.70;99.90
48752;DHT22;34544;48.836;9.174;2022-11-20T04:17:42;5.80;99.90
48752;DHT22;34544;48.836;9.174;2022-11-20T04:20:08;5.80;99.90
48752;DHT22;34544;48.836;9.174;2022-11-20T04:22:34;5.80;99.90
48752;DHT22;34544;48.836;9.174;2022-11-20T04:24:59;5.80;99.90
48752;DHT22;34544;48.836;9.174;2022-11-20T04:27:25;5.90;99.90
48752;DHT22;34544;48.836;9.174;2022-11-20T04:29:50;5.90;99.90
48752;DHT22;34544;48.836;9.174;2022-11-20T04:32:16;5.90;99.90
48752;DHT22;34544;48.836;9.174;2022-11-20T04:34:42;5.80;99.90
48752;DHT22;34544;48.836;9.174;2022-11-20T04:37:07;5.90;99.90
48752;DHT22;34544;48.836;9.174;2022-11-20T04:39:33;5.80;99.90
48752;DHT22;34544;48.836;9.174;2022-11-20T04:41:59;5.80;99.90
48752;DHT22;34544;48.836;9.174;2022-11-20T04:44:43;5.80;99.90
48752;DHT22;34544;48.836;9.174;2022-11-20T04:47:09;5.80;99.90
48752;DHT22;34544;48.836;9.174;2022-11-20T04:49:34;5.80;99.90
48752;DHT22;34544;48.836;9.174;2022-11-20T04:52:00;5.80;99.90
48752;DHT22;34544;48.836;9.174;2022-11-20T04:54:25;5.80;99.90
48752;DHT22;34544;48.836;9.174;2022-11-20T04:56:51;5.90;99.90
48752;DHT22;34544;48.836;9.174;2022-11-20T04:59:17;5.80;99.90
48752;DHT22;34544;48.836;9.174;2022-11-20T05:01:42;5.90;99.90
48752;DHT22;34544;48.836;9.174;2022-11-20T05:04:08;5.90;99.90
48752;DHT22;34544;48.836;9.174;2022-11-20T05:06:34;5.90;99.90
48752;DHT22;34544;48.836;9.174;2022-11-20T05:08:59;5.90;99.90
48752;DHT22;34544;48.836;9.174;2022-11-20T05:11:26;5.90;99.90
48752;DHT22;34544;48.836;9.174;2022-11-20T05:13:54;5.90;99.90
48752;DHT22;34544;48.836;9.174;2022-11-20T05:16:22;5.90;99.90
48752;DHT22;34544;48.836;9.174;2022-11-20T05:18:49;5.90;99.90
48752;DHT22;34544;48.836;9.174;2022-11-20T05:21:16;6.00;99.90
48752;DHT22;34544;48.836;9.174;2022-11-20T05:23:42;6.00;99.90
48752;DHT22;34544;48.836;9.174;2022-11-20T05:26:13;6.00;99.90
48752;DHT22;34544;48.836;9.174;2022-11-20T05:28:39;6.00;99.90
48752;DHT22;34544;48.836;9.174;2022-11-20T05:31:07;6.00;99.90
48752;DHT22;34544;48.836;9.174;2022-11-20T05:33:34;6.00;99.90
48752;DHT22;34544;48.836;9.174;2022-11-20T05:36:00;6.00;99.90
48752;DHT22;34544;48.836;9.174;2022-11-20T05:38:26;6.10;99.90
48752;DHT22;34544;48.836;9.174;2022-11-20T05:40:52;6.10;99.90
48752;DHT22;34544;48.836;9.174;2022-11-20T05:43:17;6.10;99.90
48752;DHT22;34544;48.836;9.174;2022-11-20T05:45:50;6.10;99.90
48752;DHT22;34544;48.836;9.174;2022-11-20T05:48:16;6.10;99.90
48752;DHT22;34544;48.836;9.174;2022-11-20T05:50:42;6.20;99.90
48752;DHT22;34544;48.836;9.174;2022-11-20T05:53:07;6.20;99.90
48752;DHT22;34544;48.836;9.174;2022-11-20T05:55:33;6.20;99.90
48752;DHT22;34544;48.836;9.174;2022-11-20T05:57:59;6.30;99.90
48752;DHT22;34544;48.836;9.174;2022-11-20T06:00:24;6.30;99.90
48752;DHT22;34544;48.836;9.174;2022-11-20T06:02:50;6.30;99.90
48752;DHT22;34544;48.836;9.174;2022-11-20T06:05:15;6.30;99.90
48752;DHT22;34544;48.836;9.174;2022-11-20T06:07:41;6.30;99.90
48752;DHT22;34544;48.836;9.174;2022-11-20T06:10:07;6.40;99.90
48752;DHT22;34544;48.836;9.174;2022-11-20T06:12:33;6.40;99.90
48752;DHT22;34544;48.836;9.174;2022-11-20T06:14:59;6.40;99.90
48752;DHT22;34544;48.836;9.174;2022-11-20T06:17:25;6.40;99.90
48752;DHT22;34544;48.836;9.174;2022-11-20T06:19:50;6.40;99.90
48752;DHT22;34544;48.836;9.174;2022-11-20T06:22:16;6.40;99.90
48752;DHT22;34544;48.836;9.174;2022-11-20T06:24:42;6.50;99.90
48752;DHT22;34544;48.836;9.174;2022-11-20T06:27:07;6.50;99.90
48752;DHT22;34544;48.836;9.174;2022-11-20T06:29:33;6.50;99.90
48752;DHT22;34544;48.836;9.174;2022-11-20T06:31:59;6.50;99.90
48752;DHT22;34544;48.836;9.174;2022-11-20T06:34:24;6.50;99.90
48752;DHT22;34544;48.836;9.174;2022-11-20T06:36:50;6.50;99.90
48752;DHT22;34544;48.836;9.174;2022-11-20T06:39:15;6.40;99.90
48752;DHT22;34544;48.836;9.174;2022-11-20T06:41:41;6.40;99.90
48752;DHT22;34544;48.836;9.174;2022-11-20T06:44:07;6.40;99.90
48752;DHT22;34544;48.836;9.174;2022-11-20T06:46:32;6.50;99.90
48752;DHT22;34544;48.836;9.174;2022-11-20T06:48:58;6.50;99.90
48752;DHT22;34544;48.836;9.174;2022-11-20T06:51:24;6.50;99.90
48752;DHT22;34544;48.836;9.174;2022-11-20T06:53:49;6.60;99.90
48752;DHT22;34544;48.836;9.174;2022-11-20T06:56:15;6.60;99.90
48752;DHT22;34544;48.836;9.174;2022-11-20T06:58:41;6.60;99.90
48752;DHT22;34544;48.836;9.174;2022-11-20T07:01:10;6.60;99.90
48752;DHT22;34544;48.836;9.174;2022-11-20T07:03:36;6.60;99.90
48752;DHT22;34544;48.836;9.174;2022-11-20T07:06:03;6.60;99.90
48752;DHT22;34544;48.836;9.174;2022-11-20T07:08:29;6.60;99.90
48752;DHT22;34544;48.836;9.174;2022-11-20T07:10:59;6.60;99.90
48752;DHT22;34544;48.836;9.174;2022-11-20T07:13:26;6.70;99.90
48752;DHT22;34544;48.836;9.174;2022-11-20T07:15:52;6.70;99.90
48752;DHT22;34544;48.836;9.174;2022-11-20T07:18:18;6.80;99.90
48752;DHT22;34544;48.836;9.174;2022-11-20T07:20:43;6.80;99.90
48752;DHT22;34544;48.836;9.174;2022-11-20T07:23:09;6.90;99.90
48752;DHT22;34544;48.836;9.174;2022-11-20T07:25:34;6.90;99.90
48752;DHT22;34544;48.836;9.174;2022-11-20T07:28:01;6.90;99.90
48752;DHT22;34544;48.836;9.174;2022-11-20T07:30:30;6.90;99.90
48752;DHT22;34544;48.836;9.174;2022-11-20T07:32:56;6.90;99.90
48752;DHT22;34544;48.836;9.174;2022-11-20T07:35:23;7.00;99.90
48752;DHT22;34544;48.836;9.174;2022-11-20T07:37:49;7.00;99.90
48752;DHT22;34544;48.836;9.174;2022-11-20T07:40:16;7.00;99.90
48752;DHT22;34544;48.836;9.174;2022-11-20T07:42:52;7.00;99.90
48752;DHT22;34544;48.836;9.174;2022-11-20T07:45:19;7.00;99.90
48752;DHT22;34544;48.836;9.174;2022-11-20T07:47:45;7.10;99.90
48752;DHT22;34544;48.836;9.174;2022-11-20T07:50:11;7.20;99.90
48752;DHT22;34544;48.836;9.174;2022-11-20T07:52:37;7.30;99.90
48752;DHT22;34544;48.836;9.174;2022-11-20T07:55:03;7.40;99.90
48752;DHT22;34544;48.836;9.174;2022-11-20T07:57:29;7.40;99.90
48752;DHT22;34544;48.836;9.174;2022-11-20T07:59:55;7.40;99.90
48752;DHT22;34544;48.836;9.174;2022-11-20T08:02:21;7.40;99.90
48752;DHT22;34544;48.836;9.174;2022-11-20T08:04:46;7.40;99.90
48752;DHT22;34544;48.836;9.174;2022-11-20T08:07:12;7.40;99.90
48752;DHT22;34544;48.836;9.174;2022-11-20T08:09:38;7.50;99.90
48752;DHT22;34544;48.836;9.174;2022-11-20T08:12:03;7.50;99.90
48752;DHT22;34544;48.836;9.174;2022-11-20T08:14:48;7.50;99.90
48752;DHT22;34544;48.836;9.174;2022-11-20T08:17:13;7.60;99.90
48752;DHT22;34544;48.836;9.174;2022-11-20T08:19:39;7.60;99.90
48752;DHT22;34544;48.836;9.174;2022-11-20T08:22:04;7.60;99.90
48752;DHT22;34544;48.836;9.174;2022-11-20T08:24:30;7.70;99.90
48752;DHT22;34544;48.836;9.174;2022-11-20T08:26:58;7.70;99.90
48752;DHT22;34544;48.836;9.174;2022-11-20T08:29:25;7.70;99.90
48752;DHT22;34544;48.836;9.174;2022-11-20T08:31:51;7.70;99.90
48752;DHT22;34544;48.836;9.174;2022-11-20T08:34:17;7.80;99.90
48752;DHT22;34544;48.836;9.174;2022-11-20T08:36:43;7.90;99.90
48752;DHT22;34544;48.836;9.174;2022-11-20T08:39:11;7.80;99.90
48752;DHT22;34544;48.836;9.174;2022-11-20T08:41:37;7.90;99.90
48752;DHT22;34544;48.836;9.174;2022-11-20T08:44:05;8.00;99.90
48752;DHT22;34544;48.836;9.174;2022-11-20T08:46:37;8.00;99.90
48752;DHT22;34544;48.836;9.174;2022-11-20T08:49:04;8.10;99.90
48752;DHT22;34544;48.836;9.174;2022-11-20T08:51:38;8.20;99.90
48752;DHT22;34544;48.836;9.174;2022-11-20T08:54:04;8.20;99.90
48752;DHT22;34544;48.836;9.174;2022-11-20T08:56:31;8.30;99.90
48752;DHT22;34544;48.836;9.174;2022-11-20T08:58:56;8.30;99.90
48752;DHT22;34544;48.836;9.174;2022-11-20T09:01:23;8.40;99.90
48752;DHT22;34544;48.836;9.174;2022-11-20T09:03:49;8.40;99.90
48752;DHT22;34544;48.836;9.174;2022-11-20T09:06:15;8.40;99.90
48752;DHT22;34544;48.836;9.174;2022-11-20T09:08:41;8.30;99.90
48752;DHT22;34544;48.836;9.174;2022-11-20T09:11:07;8.40;99.90
48752;DHT22;34544;48.836;9.174;2022-11-20T09:13:35;8.40;99.90
48752;DHT22;34544;48.836;9.174;2022-11-20T09:16:08;8.40;99.90
48752;DHT22;34544;48.836;9.174;2022-11-20T09:18:35;8.50;99.90
48752;DHT22;34544;48.836;9.174;2022-11-20T09:21:12;8.50;99.90
48752;DHT22;34544;48.836;9.174;2022-11-20T09:23:38;8.50;99.90
48752;DHT22;34544;48.836;9.174;2022-11-20T09:26:05;8.60;99.90
48752;DHT22;34544;48.836;9.174;2022-11-20T09:28:32;8.50;99.90
48752;DHT22;34544;48.836;9.174;2022-11-20T09:30:58;8.50;99.90
48752;DHT22;34544;48.836;9.174;2022-11-20T09:33:24;8.50;99.90
48752;DHT22;34544;48.836;9.174;2022-11-20T09:35:50;8.40;99.90
48752;DHT22;34544;48.836;9.174;2022-11-20T09:38:16;8.40;99.90
48752;DHT22;34544;48.836;9.174;2022-11-20T09:41:06;8.40;99.90
48752;DHT22;34544;48.836;9.174;2022-11-20T09:44:02;8.40;99.90
48752;DHT22;34544;48.836;9.174;2022-11-20T09:46:44;8.40;99.90
48752;DHT22;34544;48.836;9.174;2022-11-20T09:51:59;8.40;99.90
48752;DHT22;34544;48.836;9.174;2022-11-20T09:54:33;8.30;99.90
48752;DHT22;34544;48.836;9.174;2022-11-20T09:57:08;8.30;99.90
48752;DHT22;34544;48.836;9.174;2022-11-20T09:59:36;8.30;99.90
48752;DHT22;34544;48.836;9.174;2022-11-20T10:02:15;8.30;99.90
48752;DHT22;34544;48.836;9.174;2022-11-20T10:04:47;8.20;99.90
48752;DHT22;34544;48.836;9.174;2022-11-20T10:07:43;8.20;99.90
48752;DHT22;34544;48.836;9.174;2022-11-20T10:10:19;8.20;99.90
48752;DHT22;34544;48.836;9.174;2022-11-20T10:15:17;8.10;99.90
48752;DHT22;34544;48.836;9.174;2022-11-20T10:20:54;8.10;99.90
48752;DHT22;34544;48.836;9.174;2022-11-20T10:26:17;8.10;99.90
48752;DHT22;34544;48.836;9.174;2022-11-20T10:31:41;8.00;99.90
48752;DHT22;34544;48.836;9.174;2022-11-20T10:34:46;7.90;99.90
48752;DHT22;34544;48.836;9.174;2022-11-20T10:37:26;7.90;99.90
48752;DHT22;34544;48.836;9.174;2022-11-20T10:40:20;7.80;99.90
48752;DHT22;34544;48.836;9.174;2022-11-20T10:50:44;7.70;99.90
48752;DHT22;34544;48.836;9.174;2022-11-20T10:53:20;7.70;99.90
48752;DHT22;34544;48.836;9.174;2022-11-20T10:55:55;7.70;99.90
48752;DHT22;34544;48.836;9.174;2022-11-20T10:58:41;7.60;99.90
48752;DHT22;34544;48.836;9.174;2022-11-20T11:01:16;7.60;99.90
48752;DHT22;34544;48.836;9.174;2022-11-20T11:03:43;7.60;99.90
48752;DHT22;34544;48.836;9.174;2022-11-20T11:06:39;7.70;99.90
48752;DHT22;34544;48.836;9.174;2022-11-20T11:09:13;7.70;99.90
48752;DHT22;34544;48.836;9.174;2022-11-20T11:11:40;7.70;99.90
48752;DHT22;34544;48.836;9.174;2022-11-20T11:14:14;7.80;99.90
48752;DHT22;34544;48.836;9.174;2022-11-20T11:16:50;7.80;99.90
48752;DHT22;34544;48.836;9.174;2022-11-20T11:19:16;7.80;99.90
48752;DHT22;34544;48.836;9.174;2022-11-20T11:21:58;7.90;99.90
48752;DHT22;34544;48.836;9.174;2022-11-20T11:24:29;8.00;99.90
48752;DHT22;34544;48.836;9.174;2022-11-20T11:27:01;8.10;99.90
48752;DHT22;34544;48.836;9.174;2022-11-20T11:29:32;8.20;99.90
48752;DHT22;34544;48.836;9.174;2022-11-20T11:32:27;8.60;99.90
48752;DHT22;34544;48.836;9.174;2022-11-20T11:35:03;9.30;99.90
48752;DHT22;34544;48.836;9.174;2022-11-20T11:37:34;10.10;99.90
48752;DHT22;34544;48.836;9.174;2022-11-20T11:40:01;11.30;99.90
48752;DHT22;34544;48.836;9.174;2022-11-20T11:44:58;13.10;99.90
48752;DHT22;34544;48.836;9.174;2022-11-20T11:47:32;13.80;99.90
48752;DHT22;34544;48.836;9.174;2022-11-20T11:50:21;14.20;99.90
48752;DHT22;34544;48.836;9.174;2022-11-20T11:53:13;14.40;99.90
48752;DHT22;34544;48.836;9.174;2022-11-20T11:55:40;14.40;99.90
48752;DHT22;34544;48.836;9.174;2022-11-20T12:00:56;14.10;99.90
48752;DHT22;34544;48.836;9.174;2022-11-20T12:03:38;14.20;99.90
48752;DHT22;34544;48.836;9.174;2022-11-20T12:06:17;14.20;99.90
48752;DHT22;34544;48.836;9.174;2022-11-20T12:08:48;13.80;99.90
48752;DHT22;34544;48.836;9.174;2022-11-20T12:11:29;13.70;99.90
48752;DHT22;34544;48.836;9.174;2022-11-20T12:14:14;13.80;99.90
48752;DHT22;34544;48.836;9.174;2022-11-20T12:16:42;14.10;99.90
48752;DHT22;34544;48.836;9.174;2022-11-20T12:19:11;14.70;99.90
48752;DHT22;34544;48.836;9.174;2022-11-20T12:24:29;15.30;99.90
48752;DHT22;34544;48.836;9.174;2022-11-20T12:29:58;16.00;99.90
48752;DHT22;34544;48.836;9.174;2022-11-20T12:32:55;16.40;99.90
48752;DHT22;34544;48.836;9.174;2022-11-20T12:44:15;15.40;99.90
48752;DHT22;34544;48.836;9.174;2022-11-20T12:50:22;13.90;99.90
48752;DHT22;34544;48.836;9.174;2022-11-20T12:52:57;13.20;99.90
48752;DHT22;34544;48.836;9.174;2022-11-20T12:55:41;12.60;99.90
48752;DHT22;34544;48.836;9.174;2022-11-20T12:58:32;12.00;99.90
48752;DHT22;34544;48.836;9.174;2022-11-20T13:07:10;11.20;99.90
48752;DHT22;34544;48.836;9.174;2022-11-20T13:09:44;10.90;99.90
48752;DHT22;34544;48.836;9.174;2022-11-20T13:14:58;10.50;99.90
48752;DHT22;34544;48.836;9.174;2022-11-20T13:20:17;10.10;99.90
48752;DHT22;34544;48.836;9.174;2022-11-20T13:22:51;10.00;99.90
48752;DHT22;34544;48.836;9.174;2022-11-20T13:25:24;9.90;99.90
48752;DHT22;34544;48.836;9.174;2022-11-20T13:27:50;9.80;99.90
48752;DHT22;34544;48.836;9.174;2022-11-20T13:30:19;9.80;99.90
48752;DHT22;34544;48.836;9.174;2022-11-20T13:32:53;9.80;99.90
48752;DHT22;34544;48.836;9.174;2022-11-20T13:35:54;9.80;99.90
48752;DHT22;34544;48.836;9.174;2022-11-20T13:38:20;9.80;99.90
48752;DHT22;34544;48.836;9.174;2022-11-20T13:40:58;9.80;99.90
48752;DHT22;34544;48.836;9.174;2022-11-20T13:43:41;9.80;99.90
48752;DHT22;34544;48.836;9.174;2022-11-20T13:46:09;9.80;99.90
48752;DHT22;34544;48.836;9.174;2022-11-20T13:48:45;9.70;99.90
48752;DHT22;34544;48.836;9.174;2022-11-20T13:51:37;9.70;99.90
48752;DHT22;34544;48.836;9.174;2022-11-20T13:54:21;9.70;99.90
48752;DHT22;34544;48.836;9.174;2022-11-20T14:01:57;9.70;99.90
48752;DHT22;34544;48.836;9.174;2022-11-20T14:04:30;9.70;99.90
48752;DHT22;34544;48.836;9.174;2022-11-20T14:06:57;9.70;99.90
48752;DHT22;34544;48.836;9.174;2022-11-20T14:09:31;9.60;99.90
48752;DHT22;34544;48.836;9.174;2022-11-20T14:11:58;9.60;99.90
48752;DHT22;34544;48.836;9.174;2022-11-20T14:14:25;9.50;99.90
48752;DHT22;34544;48.836;9.174;2022-11-20T14:16:53;9.40;99.90
48752;DHT22;34544;48.836;9.174;2022-11-20T14:19:28;9.40;99.90
48752;DHT22;34544;48.836;9.174;2022-11-20T14:22:18;9.20;99.90
48752;DHT22;34544;48.836;9.174;2022-11-20T14:24:44;9.10;99.90
48752;DHT22;34544;48.836;9.174;2022-11-20T14:27:16;9.00;99.90
48752;DHT22;34544;48.836;9.174;2022-11-20T14:29:43;8.90;99.90
48752;DHT22;34544;48.836;9.174;2022-11-20T14:32:10;8.80;99.90
48752;DHT22;34544;48.836;9.174;2022-11-20T14:34:39;8.80;99.90
48752;DHT22;34544;48.836;9.174;2022-11-20T14:37:11;8.70;99.90
48752;DHT22;34544;48.836;9.174;2022-11-20T14:39:47;8.60;99.90
48752;DHT22;34544;48.836;9.174;2022-11-20T14:42:19;8.60;99.90
48752;DHT22;34544;48.836;9.174;2022-11-20T14:44:45;8.60;99.90
48752;DHT22;34544;48.836;9.174;2022-11-20T14:47:13;8.60;99.90
48752;DHT22;34544;48.836;9.174;2022-11-20T14:49:40;8.50;99.90
48752;DHT22;34544;48.836;9.174;2022-11-20T14:52:18;8.50;99.90
48752;DHT22;34544;48.836;9.174;2022-11-20T14:54:49;8.50;99.90
48752;DHT22;34544;48.836;9.174;2022-11-20T14:57:25;8.50;99.90
48752;DHT22;34544;48.836;9.174;2022-11-20T15:00:03;8.40;99.90
48752;DHT22;34544;48.836;9.174;2022-11-20T15:02:30;8.40;99.90
48752;DHT22;34544;48.836;9.174;2022-11-20T15:05:00;8.30;99.90
48752;DHT22;34544;48.836;9.174;2022-11-20T15:07:35;8.30;99.90
48752;DHT22;34544;48.836;9.174;2022-11-20T15:10:08;8.30;99.90
48752;DHT22;34544;48.836;9.174;2022-11-20T15:12:37;8.20;99.90
48752;DHT22;34544;48.836;9.174;2022-11-20T15:15:04;8.20;99.90
48752;DHT22;34544;48.836;9.174;2022-11-20T15:17:32;8.10;99.90
48752;DHT22;34544;48.836;9.174;2022-11-20T15:20:00;8.10;99.90
48752;DHT22;34544;48.836;9.174;2022-11-20T15:22:27;8.00;99.90
48752;DHT22;34544;48.836;9.174;2022-11-20T15:24:53;8.00;99.90
48752;DHT22;34544;48.836;9.174;2022-11-20T15:27:18;7.90;99.90
48752;DHT22;34544;48.836;9.174;2022-11-20T15:29:44;7.90;99.90
48752;DHT22;34544;48.836;9.174;2022-11-20T15:32:09;7.80;99.90
48752;DHT22;34544;48.836;9.174;2022-11-20T15:34:35;7.80;99.90
48752;DHT22;34544;48.836;9.174;2022-11-20T15:37:01;7.70;99.90
48752;DHT22;34544;48.836;9.174;2022-11-20T15:39:27;7.70;99.90
48752;DHT22;34544;48.836;9.174;2022-11-20T15:41:53;7.60;99.90
48752;DHT22;34544;48.836;9.174;2022-11-20T15:44:18;7.60;99.90
48752;DHT22;34544;48.836;9.174;2022-11-20T15:46:48;7.50;99.90
48752;DHT22;34544;48.836;9.174;2022-11-20T15:49:15;7.50;99.90
48752;DHT22;34544;48.836;9.174;2022-11-20T15:51:44;7.50;99.90
48752;DHT22;34544;48.836;9.174;2022-11-20T15:56:38;7.40;99.90
48752;DHT22;34544;48.836;9.174;2022-11-20T15:59:04;7.40;99.90
48752;DHT22;34544;48.836;9.174;2022-11-20T16:01:30;7.40;99.90
48752;DHT22;34544;48.836;9.174;2022-11-20T16:03:56;7.30;99.90
48752;DHT22;34544;48.836;9.174;2022-11-20T16:06:22;7.30;99.90
48752;DHT22;34544;48.836;9.174;2022-11-20T16:08:47;7.30;99.90
48752;DHT22;34544;48.836;9.174;2022-11-20T16:11:15;7.20;99.90
48752;DHT22;34544;48.836;9.174;2022-11-20T16:13:41;7.20;99.90
48752;DHT22;34544;48.836;9.174;2022-11-20T16:16:34;7.20;99.90
48752;DHT22;34544;48.836;9.174;2022-11-20T16:18:59;7.20;99.90
48752;DHT22;34544;48.836;9.174;2022-11-20T16:21:26;7.20;99.90
48752;DHT22;34544;48.836;9.174;2022-11-20T16:24:02;7.20;99.90
48752;DHT22;34544;48.836;9.174;2022-11-20T16:26:28;7.20;99.90
48752;DHT22;34544;48.836;9.174;2022-11-20T16:28:54;7.20;99.90
48752;DHT22;34544;48.836;9.174;2022-11-20T16:31:21;7.20;99.90
48752;DHT22;34544;48.836;9.174;2022-11-20T16:33:53;7.20;99.90
48752;DHT22;34544;48.836;9.174;2022-11-20T16:36:21;7.20;99.90
48752;DHT22;34544;48.836;9.174;2022-11-20T16:38:52;7.20;99.90
48752;DHT22;34544;48.836;9.174;2022-11-20T16:41:18;7.20;99.90
48752;DHT22;34544;48.836;9.174;2022-11-20T16:43:46;7.20;99.90
48752;DHT22;34544;48.836;9.174;2022-11-20T16:46:20;7.30;99.90
48752;DHT22;34544;48.836;9.174;2022-11-20T16:51:19;7.30;99.90
48752;DHT22;34544;48.836;9.174;2022-11-20T16:53:44;7.30;99.90
48752;DHT22;34544;48.836;9.174;2022-11-20T16:56:11;7.30;99.90
48752;DHT22;34544;48.836;9.174;2022-11-20T16:58:38;7.40;99.90
48752;DHT22;34544;48.836;9.174;2022-11-20T17:01:08;7.40;99.90
48752;DHT22;34544;48.836;9.174;2022-11-20T17:03:42;7.40;99.90
48752;DHT22;34544;48.836;9.174;2022-11-20T17:06:13;7.40;99.90
48752;DHT22;34544;48.836;9.174;2022-11-20T17:08:39;7.40;99.90
48752;DHT22;34544;48.836;9.174;2022-11-20T17:11:09;7.40;99.90